createdAt,value
2022-09-28T00:00:28.854Z,7.61
2022-09-28T00:01:05.676Z,7.61
2022-09-28T00:01:37.149Z,7.59
2022-09-28T00:02:08.676Z,7.57
2022-09-28T00:02:40.696Z,7.57
2022-09-28T00:03:12.587Z,7.56
2022-09-28T00:03:44.940Z,7.57
2022-09-28T00:04:16.523Z,7.56
2022-09-28T00:04:47.972Z,7.53
2022-09-28T00:05:19.434Z,7.53
2022-09-28T00:05:50.831Z,7.49
2022-09-28T00:06:23.404Z,7.53
2022-09-28T00:06:54.836Z,7.49
2022-09-28T00:07:26.549Z,7.51
2022-09-28T00:07:58.174Z,7.48
2022-09-28T00:08:29.658Z,7.53
2022-09-28T00:09:01.876Z,7.46
2022-09-28T00:09:33.696Z,7.46
2022-09-28T00:10:05.317Z,7.44
2022-09-28T00:10:36.812Z,7.44
2022-09-28T00:11:11.175Z,7.40
2022-09-28T00:11:43.774Z,7.38
2022-09-28T00:12:15.256Z,7.36
2022-09-28T00:12:46.677Z,7.39
2022-09-28T00:13:18.436Z,7.39
2022-09-28T00:13:51.626Z,7.41
2022-09-28T00:14:23.558Z,7.39
2022-09-28T00:14:55.688Z,7.43
2022-09-28T00:15:27.488Z,7.40
2022-09-28T00:16:02.409Z,7.41
2022-09-28T00:16:35.174Z,7.43
2022-09-28T00:17:07.172Z,7.43
2022-09-28T00:17:38.605Z,7.45
2022-09-28T00:18:10.027Z,7.42
2022-09-28T00:18:41.668Z,7.40
2022-09-28T00:19:13.578Z,7.44
2022-09-28T00:19:46.093Z,7.44
2022-09-28T00:20:18.284Z,7.43
2022-09-28T00:20:59.076Z,7.45
2022-09-28T00:21:34.511Z,7.46
2022-09-28T00:22:06.443Z,7.45
2022-09-28T00:22:37.913Z,7.47
2022-09-28T00:23:09.580Z,7.39
2022-09-28T00:24:00.147Z,7.45
2022-09-28T00:24:31.805Z,7.49
2022-09-28T00:25:03.499Z,7.45
2022-09-28T00:25:35.113Z,7.39
2022-09-28T00:26:06.657Z,7.41
2022-09-28T00:26:41.133Z,7.44
2022-09-28T00:27:13.093Z,7.52
2022-09-28T00:27:49.396Z,7.42
2022-09-28T00:28:20.893Z,7.51
2022-09-28T00:28:52.881Z,7.41
2022-09-28T00:29:26.550Z,7.40
2022-09-28T00:29:58.193Z,7.31
2022-09-28T00:30:29.647Z,7.33
2022-09-28T00:31:01.181Z,7.30
2022-09-28T00:31:34.085Z,7.34
2022-09-28T00:32:09.067Z,7.33
2022-09-28T00:32:40.491Z,7.39
2022-09-28T00:33:14.205Z,7.43
2022-09-28T00:33:45.660Z,7.36
2022-09-28T00:34:17.198Z,7.40
2022-09-28T00:34:49.281Z,7.37
2022-09-28T00:35:21.013Z,7.35
2022-09-28T00:35:56.172Z,7.33
2022-09-28T00:36:28.273Z,7.30
2022-09-28T00:37:00.012Z,7.39
2022-09-28T00:37:31.747Z,7.36
2022-09-28T00:38:03.877Z,7.37
2022-09-28T00:38:35.302Z,7.33
2022-09-28T00:39:09.688Z,7.36
2022-09-28T00:39:41.427Z,7.35
2022-09-28T00:40:13.168Z,7.34
2022-09-28T00:40:44.719Z,7.37
2022-09-28T00:41:17.388Z,7.39
2022-09-28T00:41:48.965Z,7.37
2022-09-28T00:42:24.136Z,7.36
2022-09-28T00:42:55.592Z,7.37
2022-09-28T00:43:28.058Z,7.35
2022-09-28T00:44:17.942Z,7.35
2022-09-28T00:44:50.328Z,7.34
2022-09-28T00:45:22.707Z,7.33
2022-09-28T00:45:58.987Z,7.35
2022-09-28T00:46:33.691Z,7.33
2022-09-28T00:47:07.808Z,7.35
2022-09-28T00:47:51.992Z,7.34
2022-09-28T00:48:23.981Z,7.31
2022-09-28T00:48:57.462Z,7.29
2022-09-28T00:49:32.327Z,7.32
2022-09-28T00:50:15.428Z,7.31
2022-09-28T00:50:46.869Z,7.39
2022-09-28T00:51:19.273Z,7.41
2022-09-28T00:51:50.711Z,7.43
2022-09-28T00:52:27.229Z,7.42
2022-09-28T00:53:02.437Z,7.39
2022-09-28T00:53:34.939Z,7.42
2022-09-28T00:54:06.421Z,7.43
2022-09-28T00:54:37.925Z,7.42
2022-09-28T00:55:11.636Z,7.43
2022-09-28T00:55:45.764Z,7.47
2022-09-28T00:56:19.148Z,7.44
2022-09-28T00:56:50.591Z,7.43
2022-09-28T00:57:22.674Z,7.42
2022-09-28T00:57:55.976Z,7.44
2022-09-28T00:58:28.757Z,7.53
2022-09-28T00:59:00.236Z,7.46
2022-09-28T00:59:32.559Z,7.47
2022-09-28T01:00:04.298Z,7.58
2022-09-28T01:00:35.848Z,7.53
2022-09-28T01:01:09.931Z,7.50
2022-09-28T01:01:41.529Z,7.48
2022-09-28T01:02:13.096Z,7.46
2022-09-28T01:02:44.645Z,7.47
2022-09-28T01:03:16.427Z,7.46
2022-09-28T01:03:48.868Z,7.42
2022-09-28T01:04:20.324Z,7.47
2022-09-28T01:04:52.181Z,7.50
2022-09-28T01:05:24.223Z,7.52
2022-09-28T01:05:56.514Z,7.60
2022-09-28T01:06:29.064Z,7.56
2022-09-28T01:07:00.516Z,7.53
2022-09-28T01:07:32.136Z,7.59
2022-09-28T01:08:03.568Z,7.55
2022-09-28T01:08:35.268Z,7.52
2022-09-28T01:09:07.891Z,7.53
2022-09-28T01:09:39.635Z,7.55
2022-09-28T01:10:11.892Z,7.60
2022-09-28T01:10:43.764Z,7.56
2022-09-28T01:11:15.199Z,7.50
2022-09-28T01:11:46.613Z,7.51
2022-09-28T01:12:18.119Z,7.48
2022-09-28T01:12:50.539Z,7.49
2022-09-28T01:13:22.083Z,7.41
2022-09-28T01:13:54.623Z,7.44
2022-09-28T01:14:26.141Z,7.50
2022-09-28T01:14:57.621Z,7.57
2022-09-28T01:15:29.303Z,7.51
2022-09-28T01:16:21.490Z,7.51
2022-09-28T01:16:54.249Z,7.59
2022-09-28T01:17:37.040Z,7.52
2022-09-28T01:18:11.990Z,7.59
2022-09-28T01:23:21.429Z,7.53
2022-09-28T01:24:01.543Z,7.55
2022-09-28T01:24:59.061Z,7.56
2022-09-28T01:25:45.963Z,7.52
2022-09-28T01:26:21.589Z,7.49
2022-09-28T01:26:56.386Z,7.46
2022-09-28T01:27:57.170Z,7.45
2022-09-28T01:28:28.712Z,7.42
2022-09-28T01:29:10.589Z,7.44
2022-09-28T01:29:57.507Z,7.36
2022-09-28T01:30:29.112Z,7.49
2022-09-28T01:31:09.749Z,7.50
2022-09-28T01:31:41.895Z,7.47
2022-09-28T01:32:28.328Z,7.52
2022-09-28T01:33:06.854Z,7.56
2022-09-28T01:33:58.708Z,7.53
2022-09-28T01:34:41.391Z,7.50
2022-09-28T01:35:31.375Z,7.51
2022-09-28T01:36:04.980Z,7.47
2022-09-28T01:36:38.192Z,7.52
2022-09-28T01:37:10.004Z,7.53
2022-09-28T01:37:44.696Z,7.49
2022-09-28T01:38:31.920Z,7.48
2022-09-28T01:39:08.041Z,7.48
2022-09-28T01:39:40.400Z,7.50
2022-09-28T01:40:12.118Z,7.47
2022-09-28T01:40:43.836Z,7.54
2022-09-28T01:41:17.781Z,7.45
2022-09-28T01:41:51.475Z,7.49
2022-09-28T01:42:25.197Z,7.49
2022-09-28T01:43:01.313Z,7.46
2022-09-28T01:43:33.953Z,7.54
2022-09-28T01:44:06.055Z,7.53
2022-09-28T01:44:39.900Z,7.49
2022-09-28T01:45:16.095Z,7.42
2022-09-28T01:46:06.113Z,7.49
2022-09-28T01:46:41.374Z,7.46
2022-09-28T01:47:13.173Z,7.45
2022-09-28T01:47:45.004Z,7.42
2022-09-28T01:48:17.828Z,7.49
2022-09-28T01:48:56.646Z,7.44
2022-09-28T01:49:30.973Z,7.44
2022-09-28T01:50:07.313Z,7.27
2022-09-28T01:50:39.757Z,7.35
2022-09-28T01:51:12.673Z,7.37
2022-09-28T01:52:01.160Z,7.38
2022-09-28T01:52:36.319Z,7.28
2022-09-28T01:53:12.031Z,7.31
2022-09-28T01:53:45.780Z,7.31
2022-09-28T01:54:23.585Z,7.30
2022-09-28T01:54:57.161Z,7.31
2022-09-28T01:55:30.608Z,7.40
2022-09-28T01:56:03.898Z,7.30
2022-09-28T01:56:39.369Z,7.33
2022-09-28T01:57:15.525Z,7.28
2022-09-28T01:57:48.983Z,7.29
2022-09-28T01:58:23.242Z,7.27
2022-09-28T01:58:56.828Z,7.24
2022-09-28T01:59:29.221Z,7.28
2022-09-28T02:00:05.556Z,7.30
2022-09-28T02:00:48.163Z,7.27
2022-09-28T02:01:22.562Z,7.25
2022-09-28T02:01:58.759Z,7.31
2022-09-28T02:02:34.299Z,7.27
2022-09-28T02:03:10.941Z,7.27
2022-09-28T02:03:56.720Z,7.28
2022-09-28T02:04:36.193Z,7.35
2022-09-28T02:05:31.374Z,7.30
2022-09-28T02:06:13.554Z,7.25
2022-09-28T02:06:47.709Z,7.22
2022-09-28T02:07:23.779Z,7.20
2022-09-28T02:07:57.413Z,7.12
2022-09-28T02:08:30.026Z,7.11
2022-09-28T02:09:08.131Z,7.11
2022-09-28T02:09:47.133Z,7.09
2022-09-28T02:10:19.675Z,7.11
2022-09-28T02:10:56.263Z,7.10
2022-09-28T02:11:27.681Z,7.10
2022-09-28T02:12:00.147Z,7.06
2022-09-28T02:12:35.411Z,7.07
2022-09-28T02:13:10.494Z,7.11
2022-09-28T02:13:44.630Z,7.11
2022-09-28T02:14:17.213Z,7.21
2022-09-28T02:14:52.162Z,7.18
2022-09-28T02:15:30.581Z,7.17
2022-09-28T02:16:07.392Z,7.09
2022-09-28T02:16:42.664Z,7.02
2022-09-28T02:17:16.161Z,7.11
2022-09-28T02:17:50.959Z,7.09
2022-09-28T02:18:22.389Z,7.13
2022-09-28T02:18:53.933Z,7.09
2022-09-28T02:19:25.963Z,7.01
2022-09-28T02:19:57.399Z,6.97
2022-09-28T02:20:29.583Z,6.92
2022-09-28T02:21:04.262Z,6.91
2022-09-28T02:21:40.962Z,6.89
2022-09-28T02:22:23.213Z,6.93
2022-09-28T02:22:56.829Z,7.01
2022-09-28T02:23:29.321Z,6.96
2022-09-28T02:24:03.213Z,6.94
2022-09-28T02:24:35.585Z,6.96
2022-09-28T02:25:11.447Z,6.98
2022-09-28T02:25:45.903Z,6.90
2022-09-28T02:26:17.437Z,6.86
2022-09-28T02:26:49.192Z,6.84
2022-09-28T02:27:29.678Z,6.85
2022-09-28T02:28:02.526Z,6.89
2022-09-28T02:28:33.963Z,6.89
2022-09-28T02:29:05.815Z,6.87
2022-09-28T02:29:37.223Z,6.86
2022-09-28T02:30:09.234Z,6.88
2022-09-28T02:30:41.522Z,6.83
2022-09-28T02:31:13.202Z,6.77
2022-09-28T02:31:44.666Z,6.80
2022-09-28T02:32:16.878Z,6.80
2022-09-28T02:32:49.328Z,6.86
2022-09-28T02:33:21.499Z,6.81
2022-09-28T02:33:53.384Z,6.76
2022-09-28T02:34:24.833Z,6.78
2022-09-28T02:34:56.252Z,6.77
2022-09-28T02:35:27.715Z,6.79
2022-09-28T02:35:59.676Z,6.74
2022-09-28T02:36:31.992Z,6.69
2022-09-28T02:37:03.468Z,6.68
2022-09-28T02:37:34.954Z,6.66
2022-09-28T02:38:06.696Z,6.63
2022-09-28T02:38:38.537Z,6.69
2022-09-28T02:39:13.963Z,6.68
2022-09-28T02:39:45.492Z,6.68
2022-09-28T02:40:18.198Z,6.64
2022-09-28T02:40:53.541Z,6.69
2022-09-28T02:41:25.017Z,6.72
2022-09-28T02:42:07.621Z,6.71
2022-09-28T02:42:46.658Z,6.71
2022-09-28T02:43:26.437Z,6.77
2022-09-28T02:44:08.797Z,6.71
2022-09-28T02:45:00.152Z,6.66
2022-09-28T02:45:50.085Z,6.76
2022-09-28T02:46:28.640Z,6.71
2022-09-28T02:47:18.152Z,6.72
2022-09-28T02:47:53.440Z,6.69
2022-09-28T02:48:42.757Z,6.72
2022-09-28T02:49:34.827Z,6.74
2022-09-28T02:50:13.095Z,6.74
2022-09-28T02:51:03.388Z,6.71
2022-09-28T02:51:37.495Z,6.69
2022-09-28T02:52:32.749Z,6.74
2022-09-28T02:53:07.366Z,6.69
2022-09-28T02:53:38.934Z,6.67
2022-09-28T02:54:23.138Z,6.69
2022-09-28T02:54:59.258Z,6.68
2022-09-28T02:55:36.506Z,6.66
2022-09-28T02:56:16.273Z,6.69
2022-09-28T02:56:47.678Z,6.74
2022-09-28T02:57:31.166Z,6.72
2022-09-28T02:58:05.256Z,6.71
2022-09-28T02:58:39.609Z,6.72
2022-09-28T02:59:24.276Z,6.76
2022-09-28T03:00:02.060Z,6.78
2022-09-28T03:00:35.275Z,6.71
2022-09-28T03:01:16.075Z,6.72
2022-09-28T03:01:48.066Z,6.72
2022-09-28T03:02:21.502Z,6.71
2022-09-28T03:02:58.813Z,6.70
2022-09-28T03:03:50.503Z,6.74
2022-09-28T03:04:24.894Z,6.73
2022-09-28T03:04:58.880Z,6.68
2022-09-28T03:05:36.518Z,6.69
2022-09-28T03:06:10.159Z,6.64
2022-09-28T03:06:53.646Z,6.64
2022-09-28T03:07:27.058Z,6.68
2022-09-28T03:07:58.587Z,6.55
2022-09-28T03:08:34.212Z,6.57
2022-09-28T03:09:09.863Z,6.58
2022-09-28T03:09:44.219Z,6.59
2022-09-28T03:10:18.595Z,6.57
2022-09-28T03:10:51.478Z,6.57
2022-09-28T03:11:24.860Z,6.62
2022-09-28T03:11:57.209Z,6.62
2022-09-28T03:12:33.219Z,6.59
2022-09-28T03:13:05.798Z,6.58
2022-09-28T03:13:37.792Z,6.57
2022-09-28T03:14:09.419Z,6.57
2022-09-28T03:15:05.663Z,6.62
2022-09-28T03:15:37.629Z,6.60
2022-09-28T03:16:18.995Z,6.58
2022-09-28T03:16:52.854Z,6.57
2022-09-28T03:17:24.861Z,6.62
2022-09-28T03:17:56.725Z,6.68
2022-09-28T03:18:28.199Z,6.63
2022-09-28T03:18:59.619Z,6.70
2022-09-28T03:19:31.917Z,6.66
2022-09-28T03:20:05.065Z,6.62
2022-09-28T03:20:37.273Z,6.63
2022-09-28T03:21:10.042Z,6.66
2022-09-28T03:21:42.139Z,6.63
2022-09-28T03:22:13.613Z,6.61
2022-09-28T03:23:00.216Z,6.62
2022-09-28T03:23:36.932Z,6.69
2022-09-28T03:24:11.129Z,6.69
2022-09-28T03:24:42.637Z,6.74
2022-09-28T03:25:15.633Z,6.71
2022-09-28T03:25:47.372Z,6.71
2022-09-28T03:26:19.828Z,6.61
2022-09-28T03:26:51.473Z,6.64
2022-09-28T03:27:23.000Z,6.65
2022-09-28T03:27:54.468Z,6.66
2022-09-28T03:28:26.467Z,6.63
2022-09-28T03:28:57.907Z,6.61
2022-09-28T03:29:33.082Z,6.64
2022-09-28T03:30:08.571Z,6.64
2022-09-28T03:30:40.235Z,6.62
2022-09-28T03:31:11.986Z,6.60
2022-09-28T03:31:44.294Z,6.64
2022-09-28T03:32:16.436Z,6.59
2022-09-28T03:32:47.864Z,6.59
2022-09-28T03:33:20.079Z,6.60
2022-09-28T03:33:51.492Z,6.58
2022-09-28T03:34:23.048Z,6.61
2022-09-28T03:34:55.488Z,6.61
2022-09-28T03:35:26.959Z,6.55
2022-09-28T03:35:58.924Z,6.55
2022-09-28T03:36:30.828Z,6.58
2022-09-28T03:37:02.570Z,6.59
2022-09-28T03:37:34.148Z,6.59
2022-09-28T03:38:05.599Z,6.57
2022-09-28T03:38:41.635Z,6.57
2022-09-28T03:39:13.130Z,6.60
2022-09-28T03:39:44.556Z,6.57
2022-09-28T03:40:16.446Z,6.56
2022-09-28T03:40:57.365Z,6.48
2022-09-28T03:41:29.125Z,6.54
2022-09-28T03:42:00.852Z,6.60
2022-09-28T03:42:35.369Z,6.59
2022-09-28T03:43:06.991Z,6.57
2022-09-28T03:43:38.440Z,6.56
2022-09-28T03:44:09.934Z,6.53
2022-09-28T03:44:41.543Z,6.50
2022-09-28T03:45:13.032Z,6.48
2022-09-28T03:45:51.046Z,6.49
2022-09-28T03:46:22.596Z,6.47
2022-09-28T03:46:57.625Z,6.48
2022-09-28T03:47:29.818Z,6.47
2022-09-28T03:48:02.829Z,6.47
2022-09-28T03:48:34.792Z,6.50
2022-09-28T03:49:06.297Z,6.48
2022-09-28T03:49:37.780Z,6.44
2022-09-28T03:50:09.300Z,6.48
2022-09-28T03:50:40.716Z,6.47
2022-09-28T03:51:14.572Z,6.46
2022-09-28T03:51:47.200Z,6.46
2022-09-28T03:52:18.833Z,6.45
2022-09-28T03:52:50.247Z,6.45
2022-09-28T03:53:21.758Z,6.46
2022-09-28T03:53:53.255Z,6.46
2022-09-28T03:54:25.555Z,6.48
2022-09-28T03:54:56.987Z,6.44
2022-09-28T03:55:28.376Z,6.45
2022-09-28T03:56:03.717Z,6.45
2022-09-28T03:56:35.903Z,6.47
2022-09-28T03:57:07.431Z,6.44
2022-09-28T03:57:38.874Z,6.44
2022-09-28T03:58:10.408Z,6.56
2022-09-28T03:58:42.047Z,6.60
2022-09-28T03:59:15.176Z,6.55
2022-09-28T03:59:46.640Z,6.51
2022-09-28T04:00:18.963Z,6.51
2022-09-28T04:00:50.648Z,6.50
2022-09-28T04:01:22.917Z,6.51
2022-09-28T04:01:54.502Z,6.51
2022-09-28T04:02:26.078Z,6.48
2022-09-28T04:02:57.530Z,6.51
2022-09-28T04:03:30.289Z,6.54
2022-09-28T04:04:01.964Z,6.59
2022-09-28T04:04:34.662Z,6.60
2022-09-28T04:05:06.130Z,6.59
2022-09-28T04:05:37.650Z,6.57
2022-09-28T04:06:09.459Z,6.57
2022-09-28T04:06:40.972Z,6.54
2022-09-28T04:07:12.627Z,6.59
2022-09-28T04:07:44.193Z,6.63
2022-09-28T04:08:16.018Z,6.61
2022-09-28T04:08:47.483Z,6.62
2022-09-28T04:09:19.792Z,6.61
2022-09-28T04:09:51.213Z,6.63
2022-09-28T04:10:22.607Z,6.64
2022-09-28T04:10:57.833Z,6.65
2022-09-28T04:11:38.558Z,6.61
2022-09-28T04:12:21.192Z,6.65
2022-09-28T04:12:56.555Z,6.65
2022-09-28T04:13:28.729Z,6.66
2022-09-28T04:14:00.302Z,6.66
2022-09-28T04:14:32.635Z,6.64
2022-09-28T04:15:04.259Z,6.64
2022-09-28T04:15:37.963Z,6.69
2022-09-28T04:16:10.239Z,6.69
2022-09-28T04:16:41.791Z,6.68
2022-09-28T04:17:16.122Z,6.68
2022-09-28T04:17:48.713Z,6.70
2022-09-28T04:18:40.139Z,6.72
2022-09-28T04:19:29.913Z,6.66
2022-09-28T04:20:19.975Z,6.70
2022-09-28T04:21:08.973Z,6.65
2022-09-28T04:21:45.352Z,6.62
2022-09-28T04:22:18.872Z,6.66
2022-09-28T04:22:50.388Z,6.66
2022-09-28T04:23:22.212Z,6.66
2022-09-28T04:23:53.739Z,6.63
2022-09-28T04:24:26.608Z,6.63
2022-09-28T04:24:58.315Z,6.63
2022-09-28T04:25:29.844Z,6.63
2022-09-28T04:26:04.004Z,6.64
2022-09-28T04:26:35.472Z,6.67
2022-09-28T04:27:33.532Z,6.68
2022-09-28T04:28:24.816Z,6.64
2022-09-28T04:29:15.081Z,6.63
2022-09-28T04:29:48.630Z,6.63
2022-09-28T04:30:22.153Z,6.62
2022-09-28T04:30:53.726Z,6.72
2022-09-28T04:31:25.442Z,6.67
2022-09-28T04:31:57.070Z,6.66
2022-09-28T04:32:37.727Z,6.63
2022-09-28T04:33:09.680Z,6.62
2022-09-28T04:33:41.069Z,6.62
2022-09-28T04:34:13.546Z,6.62
2022-09-28T04:34:45.036Z,6.61
2022-09-28T04:35:16.894Z,6.62
2022-09-28T04:35:48.388Z,6.61
2022-09-28T04:36:20.004Z,6.62
2022-09-28T04:36:51.822Z,6.58
2022-09-28T04:37:23.684Z,6.59
2022-09-28T04:37:55.519Z,6.61
2022-09-28T04:38:48.722Z,6.63
2022-09-28T04:39:21.919Z,6.63
2022-09-28T04:39:56.759Z,6.63
2022-09-28T04:40:49.032Z,6.64
2022-09-28T04:41:22.152Z,6.62
2022-09-28T04:41:54.066Z,6.65
2022-09-28T04:42:25.496Z,6.69
2022-09-28T04:42:57.338Z,6.68
2022-09-28T04:43:29.684Z,6.67
2022-09-28T04:44:01.288Z,6.68
2022-09-28T04:44:32.789Z,6.67
2022-09-28T04:45:10.064Z,6.65
2022-09-28T04:45:45.250Z,6.69
2022-09-28T04:46:17.264Z,6.68
2022-09-28T04:46:59.723Z,6.63
2022-09-28T04:47:34.504Z,6.65
2022-09-28T04:48:28.790Z,6.66
2022-09-28T04:49:10.809Z,6.62
2022-09-28T04:49:57.691Z,6.62
2022-09-28T04:50:33.329Z,6.65
2022-09-28T04:51:11.203Z,6.63
2022-09-28T04:51:42.631Z,6.63
2022-09-28T04:52:18.204Z,6.62
2022-09-28T04:52:52.799Z,6.62
2022-09-28T04:53:24.474Z,6.62
2022-09-28T04:53:56.137Z,6.57
2022-09-28T04:54:27.659Z,6.54
2022-09-28T04:54:59.095Z,6.55
2022-09-28T04:55:32.551Z,6.55
2022-09-28T04:56:11.242Z,6.62
2022-09-28T04:56:43.305Z,6.59
2022-09-28T04:57:14.729Z,6.61
2022-09-28T04:57:46.208Z,6.59
2022-09-28T04:58:18.554Z,6.62
2022-09-28T04:58:52.696Z,6.61
2022-09-28T04:59:24.645Z,6.57
2022-09-28T04:59:56.092Z,6.62
2022-09-28T05:00:27.595Z,6.61
2022-09-28T05:01:11.618Z,6.64
2022-09-28T05:02:01.732Z,6.61
2022-09-28T05:02:51.677Z,6.54
2022-09-28T05:03:51.032Z,6.56
2022-09-28T05:04:32.110Z,6.59
2022-09-28T05:05:22.698Z,6.57
2022-09-28T05:06:22.739Z,6.54
2022-09-28T05:07:00.264Z,6.56
2022-09-28T05:07:31.694Z,6.56
2022-09-28T05:08:06.037Z,6.53
2022-09-28T05:08:37.690Z,6.46
2022-09-28T05:09:09.590Z,6.47
2022-09-28T05:09:41.072Z,6.49
2022-09-28T05:10:12.925Z,6.49
2022-09-28T05:10:45.199Z,6.47
2022-09-28T05:11:16.788Z,6.44
2022-09-28T05:11:53.040Z,6.41
2022-09-28T05:12:26.456Z,6.39
2022-09-28T05:12:57.892Z,6.36
2022-09-28T05:13:29.830Z,6.38
2022-09-28T05:14:01.399Z,6.37
2022-09-28T05:14:33.282Z,6.33
2022-09-28T05:15:04.901Z,6.35
2022-09-28T05:15:36.782Z,6.35
2022-09-28T05:16:09.107Z,6.34
2022-09-28T05:16:53.779Z,6.25
2022-09-28T05:17:31.934Z,6.18
2022-09-28T05:18:25.567Z,6.10
2022-09-28T05:19:07.057Z,6.10
2022-09-28T05:19:38.632Z,6.11
2022-09-28T05:20:10.071Z,6.11
2022-09-28T05:20:42.153Z,6.08
2022-09-28T05:21:14.468Z,6.09
2022-09-28T05:21:49.066Z,6.06
2022-09-28T05:22:20.557Z,6.05
2022-09-28T05:22:52.012Z,6.04
2022-09-28T05:23:23.480Z,6.01
2022-09-28T05:24:07.394Z,5.97
2022-09-28T05:24:40.881Z,5.96
2022-09-28T05:25:13.519Z,5.97
2022-09-28T05:26:01.019Z,5.97
2022-09-28T05:26:34.044Z,5.94
2022-09-28T05:27:05.541Z,5.94
2022-09-28T05:27:37.050Z,5.93
2022-09-28T05:28:27.577Z,5.88
2022-09-28T05:29:17.405Z,5.94
2022-09-28T05:30:10.904Z,5.87
2022-09-28T05:31:20.278Z,5.85
2022-09-28T05:32:08.852Z,5.86
2022-09-28T05:32:55.017Z,5.85
2022-09-28T05:33:33.004Z,5.84
2022-09-28T05:34:14.643Z,5.87
2022-09-28T05:34:46.149Z,5.88
2022-09-28T05:35:23.735Z,5.89
2022-09-28T05:35:59.052Z,5.96
2022-09-28T05:36:32.658Z,5.98
2022-09-28T05:37:04.142Z,5.97
2022-09-28T05:37:36.577Z,5.96
2022-09-28T05:38:08.772Z,5.98
2022-09-28T05:38:40.230Z,5.95
2022-09-28T05:39:11.711Z,5.92
2022-09-28T05:39:43.201Z,5.89
2022-09-28T05:40:14.991Z,5.86
2022-09-28T05:40:47.120Z,5.85
2022-09-28T05:41:18.652Z,5.87
2022-09-28T05:41:50.488Z,5.87
2022-09-28T05:42:22.165Z,5.88
2022-09-28T05:42:53.582Z,5.91
2022-09-28T05:43:25.435Z,5.91
2022-09-28T05:43:58.124Z,5.93
2022-09-28T05:44:29.598Z,5.92
2022-09-28T05:45:01.609Z,5.94
2022-09-28T05:45:33.429Z,5.90
2022-09-28T05:46:05.788Z,5.91
2022-09-28T05:46:39.307Z,5.97
2022-09-28T05:47:13.467Z,6.04
2022-09-28T05:47:46.207Z,6.06
2022-09-28T05:48:20.629Z,6.08
2022-09-28T05:48:52.670Z,6.08
2022-09-28T05:49:24.173Z,6.11
2022-09-28T05:49:55.612Z,6.15
2022-09-28T05:50:27.132Z,6.19
2022-09-28T05:51:01.911Z,6.23
2022-09-28T05:51:33.424Z,6.23
2022-09-28T05:52:04.865Z,6.24
2022-09-28T05:52:39.675Z,6.28
2022-09-28T05:53:12.509Z,6.29
2022-09-28T05:53:43.946Z,6.31
2022-09-28T05:54:15.864Z,6.31
2022-09-28T05:54:50.580Z,6.32
2022-09-28T05:55:22.018Z,6.34
2022-09-28T05:55:57.074Z,6.33
2022-09-28T05:56:30.169Z,6.38
2022-09-28T05:57:01.639Z,6.40
2022-09-28T05:57:33.076Z,6.38
2022-09-28T05:58:05.634Z,6.41
2022-09-28T05:58:37.106Z,6.41
2022-09-28T05:59:09.339Z,6.44
2022-09-28T05:59:41.546Z,6.47
2022-09-28T06:00:13.199Z,6.49
2022-09-28T06:00:45.782Z,6.53
2022-09-28T06:01:17.629Z,6.54
2022-09-28T06:01:49.621Z,6.53
2022-09-28T06:02:21.078Z,6.54
2022-09-28T06:02:56.216Z,6.54
2022-09-28T06:03:27.700Z,6.50
2022-09-28T06:03:59.172Z,6.57
2022-09-28T06:04:30.933Z,6.55
2022-09-28T06:05:03.333Z,6.53
2022-09-28T06:05:36.152Z,6.50
2022-09-28T06:06:07.753Z,6.52
2022-09-28T06:06:39.402Z,6.54
2022-09-28T06:07:12.051Z,6.56
2022-09-28T06:07:46.444Z,6.56
2022-09-28T06:08:17.934Z,6.61
2022-09-28T06:08:52.677Z,6.63
2022-09-28T06:09:50.112Z,6.59
2022-09-28T06:10:41.126Z,6.58
2022-09-28T06:11:12.816Z,6.56
2022-09-28T06:11:44.268Z,6.51
2022-09-28T06:12:56.998Z,6.51
2022-09-28T06:13:29.004Z,6.51
2022-09-28T06:14:00.537Z,6.55
2022-09-28T06:14:34.525Z,6.48
2022-09-28T06:15:06.279Z,6.49
2022-09-28T06:15:39.069Z,6.50
2022-09-28T06:16:14.447Z,6.51
2022-09-28T06:16:45.997Z,6.54
2022-09-28T06:17:17.968Z,6.56
2022-09-28T06:17:58.468Z,6.56
2022-09-28T06:19:05.471Z,6.60
2022-09-28T06:20:09.465Z,6.69
2022-09-28T06:20:59.660Z,6.74
2022-09-28T06:21:42.516Z,6.77
2022-09-28T06:22:13.977Z,6.80
2022-09-28T06:23:01.579Z,6.87
2022-09-28T06:23:33.078Z,6.85
2022-09-28T06:24:04.798Z,6.87
2022-09-28T06:24:36.250Z,6.90
2022-09-28T06:25:08.501Z,6.99
2022-09-28T06:25:39.965Z,6.93
2022-09-28T06:26:11.448Z,6.95
2022-09-28T06:26:43.683Z,6.94
2022-09-28T06:27:15.184Z,6.97
2022-09-28T06:27:55.745Z,7.04
2022-09-28T06:28:27.238Z,6.99
2022-09-28T06:29:00.506Z,6.98
2022-09-28T06:29:32.082Z,6.97
2022-09-28T06:30:03.921Z,6.99
2022-09-28T06:30:36.458Z,6.96
2022-09-28T06:31:08.218Z,6.98
2022-09-28T06:31:47.470Z,6.95
2022-09-28T06:32:19.708Z,6.96
2022-09-28T06:32:54.974Z,6.98
2022-09-28T06:33:26.760Z,6.96
2022-09-28T06:33:59.364Z,7.01
2022-09-28T06:34:30.778Z,6.98
2022-09-28T06:35:03.482Z,7.01
2022-09-28T06:35:35.133Z,6.99
2022-09-28T06:36:06.715Z,7.03
2022-09-28T06:36:38.433Z,7.01
2022-09-28T06:37:10.161Z,7.04
2022-09-28T06:37:44.364Z,7.07
2022-09-28T06:38:15.912Z,7.03
2022-09-28T06:38:47.302Z,6.98
2022-09-28T06:39:19.465Z,6.98
2022-09-28T06:39:51.294Z,7.09
2022-09-28T06:40:22.957Z,7.03
2022-09-28T06:40:54.855Z,7.09
2022-09-28T06:41:26.435Z,7.04
2022-09-28T06:41:57.955Z,7.00
2022-09-28T06:42:37.524Z,7.03
2022-09-28T06:43:41.080Z,7.03
2022-09-28T06:44:38.439Z,7.00
2022-09-28T06:45:42.494Z,7.05
2022-09-28T06:46:32.862Z,6.98
2022-09-28T06:47:04.608Z,6.96
2022-09-28T06:47:58.460Z,6.99
2022-09-28T06:48:36.639Z,7.01
2022-09-28T06:49:09.500Z,6.98
2022-09-28T06:50:00.198Z,6.96
2022-09-28T06:50:33.644Z,6.99
2022-09-28T06:51:21.908Z,7.00
2022-09-28T06:52:02.857Z,7.03
2022-09-28T06:52:53.746Z,7.03
2022-09-28T06:53:45.505Z,7.07
2022-09-28T06:54:36.009Z,7.01
2022-09-28T06:55:18.916Z,6.99
2022-09-28T06:55:57.906Z,7.01
2022-09-28T06:56:32.700Z,7.02
2022-09-28T06:57:04.578Z,6.98
2022-09-28T06:57:36.063Z,6.97
2022-09-28T06:58:09.824Z,7.04
2022-09-28T06:58:41.345Z,6.92
2022-09-28T06:59:12.951Z,6.91
2022-09-28T06:59:44.391Z,7.00
2022-09-28T07:00:16.009Z,7.04
2022-09-28T07:00:50.873Z,7.02
2022-09-28T07:01:22.387Z,6.97
2022-09-28T07:02:08.873Z,6.93
2022-09-28T07:03:19.901Z,7.08
2022-09-28T07:03:57.870Z,7.20
2022-09-28T07:04:47.685Z,7.25
2022-09-28T07:05:43.354Z,7.22
2022-09-28T07:06:33.297Z,7.25
2022-09-28T07:07:33.804Z,7.29
2022-09-28T07:08:12.896Z,7.37
2022-09-28T07:08:53.154Z,7.35
2022-09-28T07:09:55.535Z,7.30
2022-09-28T07:10:49.484Z,7.40
2022-09-28T07:11:44.742Z,7.46
2022-09-28T07:12:40.568Z,7.50
2022-09-28T07:13:50.800Z,7.55
2022-09-28T07:14:45.057Z,7.63
2022-09-28T07:15:17.965Z,7.76
2022-09-28T07:15:49.439Z,7.83
2022-09-28T07:16:26.551Z,7.85
2022-09-28T07:17:13.051Z,7.71
2022-09-28T07:17:58.657Z,7.97
2022-09-28T07:18:32.592Z,8.27
2022-09-28T07:19:04.091Z,8.57
2022-09-28T07:19:36.242Z,8.71
2022-09-28T07:20:16.665Z,9.07
2022-09-28T07:20:54.441Z,9.58
2022-09-28T07:21:30.194Z,9.76
2022-09-28T07:22:05.643Z,9.66
2022-09-28T07:22:43.337Z,9.78
2022-09-28T07:23:20.013Z,9.63
2022-09-28T07:24:12.449Z,10.31
2022-09-28T07:25:15.808Z,10.98
2022-09-28T07:25:52.184Z,11.09
2022-09-28T07:26:37.021Z,11.20
2022-09-28T07:27:15.582Z,11.23
2022-09-28T07:28:05.711Z,11.39
2022-09-28T07:29:03.434Z,10.95
2022-09-28T07:29:55.112Z,11.05
2022-09-28T07:30:35.436Z,11.24
2022-09-28T07:31:18.510Z,11.11
2022-09-28T07:31:57.552Z,10.99
2022-09-28T07:32:36.788Z,10.88
2022-09-28T07:33:32.682Z,10.61
2022-09-28T07:34:20.418Z,10.50
2022-09-28T07:35:12.084Z,10.41
2022-09-28T07:35:55.681Z,10.45
2022-09-28T07:36:34.972Z,10.48
2022-09-28T07:37:11.652Z,10.61
2022-09-28T07:41:56.695Z,10.25
2022-09-28T07:42:31.605Z,10.17
2022-09-28T07:43:04.519Z,10.08
2022-09-28T07:43:36.166Z,10.02
2022-09-28T07:44:08.504Z,9.99
2022-09-28T07:44:41.236Z,9.98
2022-09-28T07:45:12.789Z,10.05
2022-09-28T07:45:44.306Z,10.02
2022-09-28T07:46:16.824Z,10.11
2022-09-28T07:46:56.691Z,10.10
2022-09-28T07:47:35.547Z,10.06
2022-09-28T07:48:25.914Z,10.15
2022-09-28T07:49:08.498Z,10.42
2022-09-28T07:50:03.464Z,10.67
2022-09-28T07:50:53.449Z,10.71
2022-09-28T07:51:56.936Z,11.42
2022-09-28T07:52:43.144Z,11.40
2022-09-28T07:53:31.006Z,11.93
2022-09-28T07:54:14.371Z,12.03
2022-09-28T07:54:57.951Z,12.09
2022-09-28T07:56:07.006Z,12.13
2022-09-28T07:56:45.749Z,12.45
2022-09-28T07:57:36.200Z,12.50
2022-09-28T07:58:32.857Z,12.74
2022-09-28T07:59:18.734Z,12.98
2022-09-28T08:00:13.534Z,13.33
2022-09-28T08:00:50.768Z,14.23
2022-09-28T08:01:22.481Z,14.92
2022-09-28T08:01:55.197Z,15.64
2022-09-28T08:02:26.908Z,15.93
2022-09-28T08:03:01.824Z,16.50
2022-09-28T08:03:35.494Z,17.19
2022-09-28T08:04:06.986Z,17.42
2022-09-28T08:04:40.339Z,17.01
2022-09-28T08:05:12.670Z,17.05
2022-09-28T08:05:44.331Z,16.29
2022-09-28T08:06:17.157Z,16.27
2022-09-28T08:06:48.825Z,17.59
2022-09-28T08:07:23.881Z,17.92